sensor_id;sensor_type;location;lat;lon;timestamp;pressure;altitude;pressure_sealevel;temperature;humidity
33845;BME280;20145;43.118;25.694;2023-05-14T00:00:49;100076.16;;;11.55;70.86
33845;BME280;20145;43.118;25.694;2023-05-14T00:03:14;100072.75;;;11.50;71.03
33845;BME280;20145;43.118;25.694;2023-05-14T00:05:40;100084.81;;;11.46;71.81
33845;BME280;20145;43.118;25.694;2023-05-14T00:08:06;100077.09;;;11.43;71.52
33845;BME280;20145;43.118;25.694;2023-05-14T00:10:31;100077.13;;;11.37;71.28
33845;BME280;20145;43.118;25.694;2023-05-14T00:12:57;100076.28;;;11.30;71.61
33845;BME280;20145;43.118;25.694;2023-05-14T00:15:22;100069.44;;;11.19;72.52
33845;BME280;20145;43.118;25.694;2023-05-14T00:17:48;100051.41;;;11.06;72.65
33845;BME280;20145;43.118;25.694;2023-05-14T00:20:14;100063.44;;;11.10;73.08
33845;BME280;20145;43.118;25.694;2023-05-14T00:22:39;100043.69;;;10.94;73.69
33845;BME280;20145;43.118;25.694;2023-05-14T00:25:05;100057.47;;;11.01;72.81
33845;BME280;20145;43.118;25.694;2023-05-14T00:27:32;100041.16;;;10.89;73.26
33845;BME280;20145;43.118;25.694;2023-05-14T00:29:57;100051.44;;;10.94;73.29
33845;BME280;20145;43.118;25.694;2023-05-14T00:32:23;100048.03;;;10.95;73.21
33845;BME280;20145;43.118;25.694;2023-05-14T00:34:49;100035.97;;;10.96;73.81
33845;BME280;20145;43.118;25.694;2023-05-14T00:37:14;100030.75;;;11.05;72.79
33845;BME280;20145;43.118;25.694;2023-05-14T00:39:40;100023.88;;;11.11;71.96
33845;BME280;20145;43.118;25.694;2023-05-14T00:42:05;100030.66;;;11.26;72.20
33845;BME280;20145;43.118;25.694;2023-05-14T00:44:31;100031.47;;;11.42;72.67
33845;BME280;20145;43.118;25.694;2023-05-14T00:46:57;100023.69;;;11.45;73.27
33845;BME280;20145;43.118;25.694;2023-05-14T00:49:23;100019.34;;;11.50;73.05
33845;BME280;20145;43.118;25.694;2023-05-14T00:51:49;100030.44;;;11.63;72.54
33845;BME280;20145;43.118;25.694;2023-05-14T00:54:15;100024.38;;;11.69;73.22
33845;BME280;20145;43.118;25.694;2023-05-14T00:56:45;100025.25;;;11.72;72.75
33845;BME280;20145;43.118;25.694;2023-05-14T00:59:11;100032.97;;;11.75;72.39
33845;BME280;20145;43.118;25.694;2023-05-14T01:01:37;100032.97;;;11.75;72.48
33845;BME280;20145;43.118;25.694;2023-05-14T01:04:03;100043.31;;;11.75;72.74
33845;BME280;20145;43.118;25.694;2023-05-14T01:09:52;100019.28;;;11.64;72.36
33845;BME280;20145;43.118;25.694;2023-05-14T01:15:22;100023.63;;;11.50;73.02
33845;BME280;20145;43.118;25.694;2023-05-14T01:17:53;100012.53;;;11.37;73.71
33845;BME280;20145;43.118;25.694;2023-05-14T01:20:21;100008.25;;;11.30;73.90
33845;BME280;20145;43.118;25.694;2023-05-14T01:22:47;100002.28;;;11.23;74.53
33845;BME280;20145;43.118;25.694;2023-05-14T01:25:12;99991.97;;;11.20;74.08
33845;BME280;20145;43.118;25.694;2023-05-14T01:28:21;100003.13;;;11.25;73.62
33845;BME280;20145;43.118;25.694;2023-05-14T01:31:12;100008.31;;;11.21;74.60
33845;BME280;20145;43.118;25.694;2023-05-14T01:33:41;100008.31;;;11.16;74.87
33845;BME280;20145;43.118;25.694;2023-05-14T01:36:08;100004.91;;;11.17;75.49
33845;BME280;20145;43.118;25.694;2023-05-14T01:38:34;99998.84;;;11.18;75.94
33845;BME280;20145;43.118;25.694;2023-05-14T01:41:01;100015.16;;;11.28;75.18
33845;BME280;20145;43.118;25.694;2023-05-14T01:43:27;100016.84;;;11.35;74.89
33845;BME280;20145;43.118;25.694;2023-05-14T01:45:53;100006.50;;;11.35;75.08
33845;BME280;20145;43.118;25.694;2023-05-14T01:48:20;100010.88;;;11.28;76.64
33845;BME280;20145;43.118;25.694;2023-05-14T01:50:45;100005.69;;;11.28;76.49
33845;BME280;20145;43.118;25.694;2023-05-14T01:53:11;99997.09;;;11.23;77.04
33845;BME280;20145;43.118;25.694;2023-05-14T01:55:37;99991.97;;;11.19;77.00
33845;BME280;20145;43.118;25.694;2023-05-14T01:58:02;99990.28;;;11.14;76.63
33845;BME280;20145;43.118;25.694;2023-05-14T02:00:28;99996.28;;;11.13;76.98
33845;BME280;20145;43.118;25.694;2023-05-14T02:02:53;100002.31;;;11.17;77.30
33845;BME280;20145;43.118;25.694;2023-05-14T02:05:19;99998.03;;;11.14;75.99
33845;BME280;20145;43.118;25.694;2023-05-14T02:07:45;100010.88;;;11.25;76.36
33845;BME280;20145;43.118;25.694;2023-05-14T02:10:10;100009.13;;;11.29;76.56
33845;BME280;20145;43.118;25.694;2023-05-14T02:12:36;100013.44;;;11.22;76.52
33845;BME280;20145;43.118;25.694;2023-05-14T02:15:02;100023.81;;;11.21;75.83
33845;BME280;20145;43.118;25.694;2023-05-14T02:17:28;100024.66;;;11.21;76.29
33845;BME280;20145;43.118;25.694;2023-05-14T02:19:54;100036.72;;;11.21;77.07
33845;BME280;20145;43.118;25.694;2023-05-14T02:22:19;100011.81;;;11.07;75.75
33845;BME280;20145;43.118;25.694;2023-05-14T02:24:45;100016.94;;;11.15;75.90
33845;BME280;20145;43.118;25.694;2023-05-14T02:27:11;100008.31;;;11.19;76.21
33845;BME280;20145;43.118;25.694;2023-05-14T02:29:38;100008.28;;;11.24;75.98
33845;BME280;20145;43.118;25.694;2023-05-14T02:32:04;100000.53;;;11.28;75.10
33845;BME280;20145;43.118;25.694;2023-05-14T02:34:30;100000.47;;;11.36;75.28
33845;BME280;20145;43.118;25.694;2023-05-14T02:36:57;100006.44;;;11.49;75.19
33845;BME280;20145;43.118;25.694;2023-05-14T02:39:23;100004.66;;;11.58;76.57
33845;BME280;20145;43.118;25.694;2023-05-14T02:41:48;100008.06;;;11.65;77.37
33845;BME280;20145;43.118;25.694;2023-05-14T02:44:14;100003.66;;;11.75;77.27
33845;BME280;20145;43.118;25.694;2023-05-14T02:46:40;100003.59;;;11.82;75.83
33845;BME280;20145;43.118;25.694;2023-05-14T02:49:05;99994.97;;;11.88;76.50
33845;BME280;20145;43.118;25.694;2023-05-14T02:51:31;99996.63;;;11.98;77.16
33845;BME280;20145;43.118;25.694;2023-05-14T02:53:56;100002.66;;;11.99;75.65
33845;BME280;20145;43.118;25.694;2023-05-14T02:56:22;100004.31;;;12.09;76.98
33845;BME280;20145;43.118;25.694;2023-05-14T02:58:47;100002.50;;;12.17;76.52
33845;BME280;20145;43.118;25.694;2023-05-14T03:01:13;100011.94;;;12.21;78.05
33845;BME280;20145;43.118;25.694;2023-05-14T03:03:39;100014.50;;;12.24;76.30
33845;BME280;20145;43.118;25.694;2023-05-14T03:06:05;100013.63;;;12.27;77.02
33845;BME280;20145;43.118;25.694;2023-05-14T03:08:30;100017.06;;;12.31;72.52
33845;BME280;20145;43.118;25.694;2023-05-14T03:10:56;100023.88;;;12.38;75.24
33845;BME280;20145;43.118;25.694;2023-05-14T03:13:21;100023.84;;;12.41;74.36
33845;BME280;20145;43.118;25.694;2023-05-14T03:15:47;100027.28;;;12.43;74.74
33845;BME280;20145;43.118;25.694;2023-05-14T03:18:13;100030.66;;;12.49;74.64
33845;BME280;20145;43.118;25.694;2023-05-14T03:20:39;100005.72;;;12.42;73.78
33845;BME280;20145;43.118;25.694;2023-05-14T03:23:05;99995.44;;;12.35;73.38
33845;BME280;20145;43.118;25.694;2023-05-14T03:25:30;100007.38;;;12.46;73.29
33845;BME280;20145;43.118;25.694;2023-05-14T03:27:56;100013.38;;;12.52;72.89
33845;BME280;20145;43.118;25.694;2023-05-14T03:30:21;100009.03;;;12.55;71.83
33845;BME280;20145;43.118;25.694;2023-05-14T03:32:47;100002.09;;;12.57;68.46
33845;BME280;20145;43.118;25.694;2023-05-14T03:35:12;100009.78;;;12.63;68.94
33845;BME280;20145;43.118;25.694;2023-05-14T03:37:38;100008.88;;;12.72;65.72
33845;BME280;20145;43.118;25.694;2023-05-14T03:40:04;100009.59;;;12.83;63.31
33845;BME280;20145;43.118;25.694;2023-05-14T03:42:30;100012.00;;;13.00;63.09
33845;BME280;20145;43.118;25.694;2023-05-14T03:44:55;100013.53;;;13.13;61.04
33845;BME280;20145;43.118;25.694;2023-05-14T03:47:21;100014.19;;;13.32;59.78
33845;BME280;20145;43.118;25.694;2023-05-14T03:49:46;100019.16;;;13.46;58.76
33845;BME280;20145;43.118;25.694;2023-05-14T03:52:12;100021.56;;;13.61;55.66
33845;BME280;20145;43.118;25.694;2023-05-14T03:54:37;100027.38;;;13.77;56.80
33845;BME280;20145;43.118;25.694;2023-05-14T03:57:05;100025.34;;;13.96;56.06
33845;BME280;20145;43.118;25.694;2023-05-14T03:59:31;100023.34;;;14.12;56.20
33845;BME280;20145;43.118;25.694;2023-05-14T04:01:57;100011.13;;;14.19;53.82
33845;BME280;20145;43.118;25.694;2023-05-14T04:04:22;100019.31;;;14.47;53.14
33845;BME280;20145;43.118;25.694;2023-05-14T04:06:48;100030.97;;;14.72;53.37
33845;BME280;20145;43.118;25.694;2023-05-14T04:09:13;100027.00;;;15.00;52.71
33845;BME280;20145;43.118;25.694;2023-05-14T04:11:39;100023.53;;;15.41;52.63
33845;BME280;20145;43.118;25.694;2023-05-14T04:14:05;100028.91;;;15.72;51.91
33845;BME280;20145;43.118;25.694;2023-05-14T04:16:30;100026.00;;;15.84;49.25
33845;BME280;20145;43.118;25.694;2023-05-14T04:18:56;100029.44;;;16.22;47.51
33845;BME280;20145;43.118;25.694;2023-05-14T04:21:21;100029.56;;;16.50;47.66
33845;BME280;20145;43.118;25.694;2023-05-14T04:23:47;100024.06;;;16.63;48.38
33845;BME280;20145;43.118;25.694;2023-05-14T04:26:13;100017.84;;;16.67;48.39
33845;BME280;20145;43.118;25.694;2023-05-14T04:28:38;100022.47;;;16.90;47.69
33845;BME280;20145;43.118;25.694;2023-05-14T04:31:04;100007.34;;;17.03;45.49
33845;BME280;20145;43.118;25.694;2023-05-14T04:33:30;100015.38;;;17.25;45.43
33845;BME280;20145;43.118;25.694;2023-05-14T04:35:55;100006.56;;;17.29;44.47
33845;BME280;20145;43.118;25.694;2023-05-14T04:38:21;100019.28;;;17.39;45.37
33845;BME280;20145;43.118;25.694;2023-05-14T04:40:47;100015.97;;;17.63;46.78
33845;BME280;20145;43.118;25.694;2023-05-14T04:43:13;100014.97;;;17.67;46.50
33845;BME280;20145;43.118;25.694;2023-05-14T04:45:38;100028.44;;;17.82;45.78
33845;BME280;20145;43.118;25.694;2023-05-14T04:48:05;100022.28;;;17.55;44.33
33845;BME280;20145;43.118;25.694;2023-05-14T04:50:32;100024.47;;;17.41;44.50
33845;BME280;20145;43.118;25.694;2023-05-14T04:52:58;100007.50;;;17.26;44.87
33845;BME280;20145;43.118;25.694;2023-05-14T04:55:24;100001.41;;;17.27;44.69
33845;BME280;20145;43.118;25.694;2023-05-14T04:57:50;99984.22;;;17.48;44.16
33845;BME280;20145;43.118;25.694;2023-05-14T05:00:16;99989.81;;;17.92;42.79
33845;BME280;20145;43.118;25.694;2023-05-14T05:02:42;99990.50;;;18.24;41.96
33845;BME280;20145;43.118;25.694;2023-05-14T05:05:07;99980.53;;;18.35;42.10
33845;BME280;20145;43.118;25.694;2023-05-14T05:07:34;99993.75;;;18.04;42.54
33845;BME280;20145;43.118;25.694;2023-05-14T05:10:01;99997.84;;;17.86;44.19
33845;BME280;20145;43.118;25.694;2023-05-14T05:12:26;100002.03;;;17.92;42.94
33845;BME280;20145;43.118;25.694;2023-05-14T05:14:57;100005.03;;;17.79;43.30
33845;BME280;20145;43.118;25.694;2023-05-14T05:17:23;100001.69;;;17.74;44.08
33845;BME280;20145;43.118;25.694;2023-05-14T05:19:49;100008.41;;;17.53;43.91
33845;BME280;20145;43.118;25.694;2023-05-14T05:22:15;100001.72;;;17.16;44.12
33845;BME280;20145;43.118;25.694;2023-05-14T05:24:41;100008.78;;;17.13;46.29
33845;BME280;20145;43.118;25.694;2023-05-14T05:27:06;100007.69;;;17.20;45.47
33845;BME280;20145;43.118;25.694;2023-05-14T05:29:33;99993.69;;;17.23;44.23
33845;BME280;20145;43.118;25.694;2023-05-14T05:31:59;100008.59;;;17.19;45.28
33845;BME280;20145;43.118;25.694;2023-05-14T05:34:24;100006.03;;;17.17;46.05
33845;BME280;20145;43.118;25.694;2023-05-14T05:36:50;100004.75;;;17.31;44.95
33845;BME280;20145;43.118;25.694;2023-05-14T05:39:15;100008.75;;;17.43;46.35
33845;BME280;20145;43.118;25.694;2023-05-14T05:41:41;100010.75;;;17.63;45.49
33845;BME280;20145;43.118;25.694;2023-05-14T05:44:07;100008.25;;;17.88;44.64
33845;BME280;20145;43.118;25.694;2023-05-14T05:46:33;100010.22;;;18.08;44.80
33845;BME280;20145;43.118;25.694;2023-05-14T05:48:59;100011.69;;;18.41;44.52
33845;BME280;20145;43.118;25.694;2023-05-14T05:51:24;100009.66;;;18.49;43.87
33845;BME280;20145;43.118;25.694;2023-05-14T05:53:50;100020.84;;;18.53;43.29
33845;BME280;20145;43.118;25.694;2023-05-14T05:56:15;100015.78;;;18.73;43.56
33845;BME280;20145;43.118;25.694;2023-05-14T05:58:41;100022.75;;;18.73;44.75
33845;BME280;20145;43.118;25.694;2023-05-14T06:01:06;100025.53;;;18.93;43.32
33845;BME280;20145;43.118;25.694;2023-05-14T06:03:32;100029.25;;;18.88;43.21
33845;BME280;20145;43.118;25.694;2023-05-14T06:05:58;100017.69;;;18.93;44.55
33845;BME280;20145;43.118;25.694;2023-05-14T06:08:23;100040.50;;;19.13;44.47
33845;BME280;20145;43.118;25.694;2023-05-14T06:10:49;100032.88;;;19.07;45.51
33845;BME280;20145;43.118;25.694;2023-05-14T06:13:15;100044.53;;;19.22;44.50
33845;BME280;20145;43.118;25.694;2023-05-14T06:15:40;100046.13;;;19.26;44.51
33845;BME280;20145;43.118;25.694;2023-05-14T06:18:06;100054.59;;;19.33;44.86
33845;BME280;20145;43.118;25.694;2023-05-14T06:20:33;100046.22;;;19.23;45.24
33845;BME280;20145;43.118;25.694;2023-05-14T06:22:58;100045.28;;;19.02;44.67
33845;BME280;20145;43.118;25.694;2023-05-14T06:25:24;100038.69;;;19.15;44.80
33845;BME280;20145;43.118;25.694;2023-05-14T06:27:50;100040.16;;;19.23;44.67
33845;BME280;20145;43.118;25.694;2023-05-14T06:30:15;100037.13;;;19.33;45.83
33845;BME280;20145;43.118;25.694;2023-05-14T06:32:41;100028.06;;;19.42;45.57
33845;BME280;20145;43.118;25.694;2023-05-14T06:35:07;100036.13;;;19.14;45.83
33845;BME280;20145;43.118;25.694;2023-05-14T06:37:32;100026.56;;;19.13;44.95
33845;BME280;20145;43.118;25.694;2023-05-14T06:39:59;100032.66;;;19.13;46.05
33845;BME280;20145;43.118;25.694;2023-05-14T06:42:24;100038.19;;;19.29;45.98
33845;BME280;20145;43.118;25.694;2023-05-14T06:44:50;100031.72;;;19.38;46.15
33845;BME280;20145;43.118;25.694;2023-05-14T06:47:16;100039.41;;;19.66;46.94
33845;BME280;20145;43.118;25.694;2023-05-14T06:49:41;100031.28;;;19.94;46.01
33845;BME280;20145;43.118;25.694;2023-05-14T06:52:07;100038.59;;;20.08;45.92
33845;BME280;20145;43.118;25.694;2023-05-14T06:54:32;100048.44;;;20.23;45.75
33845;BME280;20145;43.118;25.694;2023-05-14T06:56:58;100052.56;;;20.29;45.95
33845;BME280;20145;43.118;25.694;2023-05-14T06:59:23;100050.63;;;20.34;45.42
33845;BME280;20145;43.118;25.694;2023-05-14T07:01:49;100061.59;;;20.42;45.50
33845;BME280;20145;43.118;25.694;2023-05-14T07:04:15;100059.91;;;20.41;45.10
33845;BME280;20145;43.118;25.694;2023-05-14T07:06:40;100060.94;;;20.59;44.65
33845;BME280;20145;43.118;25.694;2023-05-14T07:09:06;100071.38;;;20.81;44.72
33845;BME280;20145;43.118;25.694;2023-05-14T07:11:32;100054.16;;;20.94;46.11
33845;BME280;20145;43.118;25.694;2023-05-14T07:13:58;100060.00;;;21.01;46.52
33845;BME280;20145;43.118;25.694;2023-05-14T07:16:23;100055.38;;;21.06;47.37
33845;BME280;20145;43.118;25.694;2023-05-14T07:18:49;100062.50;;;21.23;46.20
33845;BME280;20145;43.118;25.694;2023-05-14T07:21:15;100049.78;;;21.33;45.15
33845;BME280;20145;43.118;25.694;2023-05-14T07:23:41;100057.81;;;21.30;44.93
33845;BME280;20145;43.118;25.694;2023-05-14T07:26:06;100056.56;;;21.38;45.86
33845;BME280;20145;43.118;25.694;2023-05-14T07:28:33;100059.88;;;21.42;47.55
33845;BME280;20145;43.118;25.694;2023-05-14T07:30:59;100052.25;;;21.17;45.66
33845;BME280;20145;43.118;25.694;2023-05-14T07:33:25;100052.28;;;21.36;45.92
33845;BME280;20145;43.118;25.694;2023-05-14T07:35:51;100046.34;;;21.51;46.38
33845;BME280;20145;43.118;25.694;2023-05-14T07:38:18;100041.44;;;21.63;47.26
33845;BME280;20145;43.118;25.694;2023-05-14T07:40:44;100048.88;;;21.72;46.20
33845;BME280;20145;43.118;25.694;2023-05-14T07:43:10;100053.72;;;21.81;46.51
33845;BME280;20145;43.118;25.694;2023-05-14T07:45:37;100054.56;;;21.99;45.24
33845;BME280;20145;43.118;25.694;2023-05-14T07:48:04;100046.06;;;22.11;43.50
33845;BME280;20145;43.118;25.694;2023-05-14T07:50:36;100042.44;;;21.96;42.96
33845;BME280;20145;43.118;25.694;2023-05-14T07:53:02;100046.91;;;21.94;44.56
33845;BME280;20145;43.118;25.694;2023-05-14T07:55:27;100042.81;;;21.89;44.16
33845;BME280;20145;43.118;25.694;2023-05-14T07:57:53;100050.44;;;22.12;44.10
33845;BME280;20145;43.118;25.694;2023-05-14T08:00:19;100053.09;;;22.30;44.43
33845;BME280;20145;43.118;25.694;2023-05-14T08:02:44;100037.72;;;22.39;43.80
33845;BME280;20145;43.118;25.694;2023-05-14T08:05:10;100052.84;;;22.52;43.52
33845;BME280;20145;43.118;25.694;2023-05-14T08:07:35;100052.16;;;22.48;43.65
33845;BME280;20145;43.118;25.694;2023-05-14T08:10:01;100051.06;;;22.52;45.14
33845;BME280;20145;43.118;25.694;2023-05-14T08:12:27;100055.47;;;22.52;44.04
33845;BME280;20145;43.118;25.694;2023-05-14T08:14:54;100046.28;;;22.60;43.19
33845;BME280;20145;43.118;25.694;2023-05-14T08:17:19;100049.88;;;22.75;42.58
33845;BME280;20145;43.118;25.694;2023-05-14T08:19:45;100049.75;;;22.94;42.43
33845;BME280;20145;43.118;25.694;2023-05-14T08:22:11;100048.56;;;22.84;41.54
33845;BME280;20145;43.118;25.694;2023-05-14T08:24:37;100050.25;;;22.85;41.76
33845;BME280;20145;43.118;25.694;2023-05-14T08:27:03;100056.97;;;23.08;41.52
33845;BME280;20145;43.118;25.694;2023-05-14T08:29:29;100055.75;;;22.80;41.08
33845;BME280;20145;43.118;25.694;2023-05-14T08:31:55;100056.75;;;22.78;40.62
33845;BME280;20145;43.118;25.694;2023-05-14T08:34:20;100063.75;;;22.79;39.33
33845;BME280;20145;43.118;25.694;2023-05-14T08:36:46;100060.50;;;22.74;37.65
33845;BME280;20145;43.118;25.694;2023-05-14T08:39:12;100062.16;;;22.59;38.68
33845;BME280;20145;43.118;25.694;2023-05-14T08:41:39;100061.28;;;22.58;37.57
33845;BME280;20145;43.118;25.694;2023-05-14T08:44:31;100061.59;;;22.52;38.42
33845;BME280;20145;43.118;25.694;2023-05-14T08:47:01;100060.91;;;22.31;37.09
33845;BME280;20145;43.118;25.694;2023-05-14T08:49:39;100065.53;;;22.26;36.85
33845;BME280;20145;43.118;25.694;2023-05-14T08:52:07;100066.09;;;22.14;37.28
33845;BME280;20145;43.118;25.694;2023-05-14T08:54:36;100069.91;;;21.89;36.64
33845;BME280;20145;43.118;25.694;2023-05-14T08:57:06;100073.91;;;21.98;36.81
33845;BME280;20145;43.118;25.694;2023-05-14T08:59:33;100074.25;;;22.09;37.56
33845;BME280;20145;43.118;25.694;2023-05-14T09:02:02;100073.44;;;22.26;38.01
33845;BME280;20145;43.118;25.694;2023-05-14T09:04:31;100082.16;;;22.26;38.49
33845;BME280;20145;43.118;25.694;2023-05-14T09:06:59;100079.97;;;22.17;38.83
33845;BME280;20145;43.118;25.694;2023-05-14T09:09:26;100074.38;;;22.06;39.41
33845;BME280;20145;43.118;25.694;2023-05-14T09:11:53;100081.03;;;22.13;39.07
33845;BME280;20145;43.118;25.694;2023-05-14T09:14:19;100073.16;;;22.13;38.80
33845;BME280;20145;43.118;25.694;2023-05-14T09:16:46;100074.34;;;21.89;38.58
33845;BME280;20145;43.118;25.694;2023-05-14T09:19:12;100072.78;;;21.85;38.12
33845;BME280;20145;43.118;25.694;2023-05-14T09:21:39;100080.97;;;21.78;38.86
33845;BME280;20145;43.118;25.694;2023-05-14T09:24:05;100077.91;;;21.50;39.20
33845;BME280;20145;43.118;25.694;2023-05-14T09:26:32;100075.78;;;21.58;38.92
33845;BME280;20145;43.118;25.694;2023-05-14T09:28:58;100075.78;;;21.77;40.22
33845;BME280;20145;43.118;25.694;2023-05-14T09:31:32;100086.97;;;21.80;39.25
33845;BME280;20145;43.118;25.694;2023-05-14T09:33:58;100086.56;;;21.90;38.59
33845;BME280;20145;43.118;25.694;2023-05-14T09:36:24;100081.47;;;21.87;38.41
33845;BME280;20145;43.118;25.694;2023-05-14T09:38:52;100078.50;;;22.12;38.28
33845;BME280;20145;43.118;25.694;2023-05-14T09:41:17;100079.97;;;22.17;38.41
33845;BME280;20145;43.118;25.694;2023-05-14T09:43:43;100071.66;;;22.26;36.30
33845;BME280;20145;43.118;25.694;2023-05-14T09:46:09;100080.25;;;22.47;36.91
33845;BME280;20145;43.118;25.694;2023-05-14T09:48:35;100078.06;;;22.56;37.37
33845;BME280;20145;43.118;25.694;2023-05-14T09:51:00;100082.16;;;22.44;36.59
33845;BME280;20145;43.118;25.694;2023-05-14T09:53:27;100076.75;;;22.47;37.40
33845;BME280;20145;43.118;25.694;2023-05-14T09:55:52;100077.59;;;22.30;37.61
33845;BME280;20145;43.118;25.694;2023-05-14T09:58:18;100081.94;;;22.31;36.79
33845;BME280;20145;43.118;25.694;2023-05-14T10:00:45;100075.38;;;22.40;35.38
33845;BME280;20145;43.118;25.694;2023-05-14T10:03:13;100077.16;;;22.39;35.63
33845;BME280;20145;43.118;25.694;2023-05-14T10:05:40;100076.06;;;22.61;36.51
33845;BME280;20145;43.118;25.694;2023-05-14T10:08:29;100067.53;;;22.73;36.25
33845;BME280;20145;43.118;25.694;2023-05-14T10:10:57;100061.91;;;22.29;36.12
33845;BME280;20145;43.118;25.694;2023-05-14T10:13:28;100067.19;;;21.73;36.24
33845;BME280;20145;43.118;25.694;2023-05-14T10:16:18;100080.47;;;21.70;37.71
33845;BME280;20145;43.118;25.694;2023-05-14T10:18:49;100071.38;;;21.58;38.06
33845;BME280;20145;43.118;25.694;2023-05-14T10:21:19;100064.91;;;21.85;38.46
33845;BME280;20145;43.118;25.694;2023-05-14T10:23:47;100062.16;;;21.69;37.40
33845;BME280;20145;43.118;25.694;2023-05-14T10:26:13;100051.75;;;21.67;37.36
33845;BME280;20145;43.118;25.694;2023-05-14T10:28:40;100034.81;;;21.16;38.63
33845;BME280;20145;43.118;25.694;2023-05-14T10:31:08;100020.69;;;21.00;39.87
33845;BME280;20145;43.118;25.694;2023-05-14T10:33:45;100014.31;;;21.24;40.60
33845;BME280;20145;43.118;25.694;2023-05-14T10:36:11;100026.16;;;21.33;40.10
33845;BME280;20145;43.118;25.694;2023-05-14T10:38:37;100007.88;;;21.50;40.31
33845;BME280;20145;43.118;25.694;2023-05-14T10:43:31;100003.03;;;22.14;39.86
33845;BME280;20145;43.118;25.694;2023-05-14T10:46:00;99987.25;;;21.96;38.24
33845;BME280;20145;43.118;25.694;2023-05-14T10:48:27;99986.00;;;21.86;38.91
33845;BME280;20145;43.118;25.694;2023-05-14T10:50:53;99995.78;;;22.36;39.97
33845;BME280;20145;43.118;25.694;2023-05-14T10:53:19;99983.78;;;22.81;39.36
33845;BME280;20145;43.118;25.694;2023-05-14T10:55:46;99978.50;;;23.30;37.39
33845;BME280;20145;43.118;25.694;2023-05-14T10:58:12;99976.97;;;23.26;37.87
33845;BME280;20145;43.118;25.694;2023-05-14T11:00:39;99973.75;;;23.53;38.72
33845;BME280;20145;43.118;25.694;2023-05-14T11:03:06;99971.34;;;23.64;38.32
33845;BME280;20145;43.118;25.694;2023-05-14T11:05:32;99977.94;;;23.25;38.14
33845;BME280;20145;43.118;25.694;2023-05-14T11:08:03;99965.25;;;23.32;37.74
33845;BME280;20145;43.118;25.694;2023-05-14T11:10:30;99968.97;;;22.96;38.60
33845;BME280;20145;43.118;25.694;2023-05-14T11:12:56;99951.22;;;23.00;38.94
33845;BME280;20145;43.118;25.694;2023-05-14T11:15:24;99947.53;;;23.20;39.59
33845;BME280;20145;43.118;25.694;2023-05-14T11:17:51;99935.19;;;23.20;38.59
33845;BME280;20145;43.118;25.694;2023-05-14T11:20:18;99925.09;;;23.12;38.12
33845;BME280;20145;43.118;25.694;2023-05-14T11:22:45;99931.78;;;23.18;38.31
33845;BME280;20145;43.118;25.694;2023-05-14T11:25:12;99952.09;;;23.48;38.64
33845;BME280;20145;43.118;25.694;2023-05-14T11:27:44;99947.56;;;23.50;37.94
33845;BME280;20145;43.118;25.694;2023-05-14T11:30:14;99932.94;;;23.60;37.91
33845;BME280;20145;43.118;25.694;2023-05-14T11:32:40;99924.97;;;23.46;38.91
33845;BME280;20145;43.118;25.694;2023-05-14T11:35:06;99930.84;;;23.51;39.25
33845;BME280;20145;43.118;25.694;2023-05-14T11:37:32;99926.19;;;23.70;38.58
33845;BME280;20145;43.118;25.694;2023-05-14T11:39:59;99936.34;;;23.78;38.66
33845;BME280;20145;43.118;25.694;2023-05-14T11:42:25;99938.03;;;23.63;38.93
33845;BME280;20145;43.118;25.694;2023-05-14T11:44:51;99934.50;;;23.48;39.10
33845;BME280;20145;43.118;25.694;2023-05-14T11:47:19;99944.38;;;23.29;39.29
33845;BME280;20145;43.118;25.694;2023-05-14T11:49:46;99944.19;;;23.32;39.84
33845;BME280;20145;43.118;25.694;2023-05-14T11:52:13;99935.66;;;23.74;38.71
33845;BME280;20145;43.118;25.694;2023-05-14T11:54:43;99943.03;;;23.68;40.65
33845;BME280;20145;43.118;25.694;2023-05-14T11:57:15;99939.09;;;23.91;39.64
33845;BME280;20145;43.118;25.694;2023-05-14T11:59:40;99930.59;;;23.86;39.02
33845;BME280;20145;43.118;25.694;2023-05-14T12:02:16;99922.94;;;24.11;39.32
33845;BME280;20145;43.118;25.694;2023-05-14T12:04:43;99925.00;;;24.06;39.13
33845;BME280;20145;43.118;25.694;2023-05-14T12:07:09;99917.75;;;24.10;39.02
33845;BME280;20145;43.118;25.694;2023-05-14T12:09:43;99905.31;;;23.67;39.10
33845;BME280;20145;43.118;25.694;2023-05-14T12:12:20;99894.38;;;23.43;39.34
33845;BME280;20145;43.118;25.694;2023-05-14T12:14:46;99900.91;;;23.52;39.96
33845;BME280;20145;43.118;25.694;2023-05-14T12:17:16;99889.69;;;23.64;40.14
33845;BME280;20145;43.118;25.694;2023-05-14T12:19:43;99884.97;;;23.69;40.69
33845;BME280;20145;43.118;25.694;2023-05-14T12:22:11;99877.75;;;24.03;39.69
33845;BME280;20145;43.118;25.694;2023-05-14T12:24:38;99862.81;;;23.88;40.47
33845;BME280;20145;43.118;25.694;2023-05-14T12:27:04;99878.19;;;23.65;40.74
33845;BME280;20145;43.118;25.694;2023-05-14T12:29:33;99878.00;;;23.22;39.72
33845;BME280;20145;43.118;25.694;2023-05-14T12:31:59;99871.56;;;23.28;40.37
33845;BME280;20145;43.118;25.694;2023-05-14T12:34:25;99881.72;;;23.04;40.33
33845;BME280;20145;43.118;25.694;2023-05-14T12:36:50;99883.13;;;23.25;41.12
33845;BME280;20145;43.118;25.694;2023-05-14T12:39:16;99867.22;;;23.43;42.00
33845;BME280;20145;43.118;25.694;2023-05-14T12:41:42;99869.66;;;23.46;40.54
33845;BME280;20145;43.118;25.694;2023-05-14T12:44:08;99860.63;;;23.50;40.91
33845;BME280;20145;43.118;25.694;2023-05-14T12:46:33;99861.50;;;23.50;40.19
33845;BME280;20145;43.118;25.694;2023-05-14T12:48:59;99865.41;;;23.43;40.67